createdAt,value
2018-07-02T00:00:29.227Z,19.75
2018-07-02T00:01:43.410Z,19.71
2018-07-02T00:02:58.159Z,19.68
2018-07-02T00:04:13.353Z,19.64
2018-07-02T00:05:28.186Z,19.62
2018-07-02T00:06:42.681Z,19.59
2018-07-02T00:07:57.764Z,19.59
2018-07-02T00:09:12.462Z,19.57
2018-07-02T00:10:26.559Z,19.56
2018-07-02T00:11:40.402Z,19.55
2018-07-02T00:12:56.534Z,19.53
2018-07-02T00:14:11.451Z,19.52
2018-07-02T00:15:26.726Z,19.49
2018-07-02T00:16:41.352Z,19.47
2018-07-02T00:17:57.039Z,19.44
2018-07-02T00:19:13.604Z,19.41
2018-07-02T00:20:28.759Z,19.41
2018-07-02T00:21:42.576Z,19.38
2018-07-02T00:22:57.154Z,19.35
2018-07-02T00:24:12.069Z,19.3
2018-07-02T00:25:26.024Z,19.28
2018-07-02T00:26:40.728Z,19.24
2018-07-02T00:27:54.800Z,19.24
2018-07-02T00:29:10.028Z,19.22
2018-07-02T00:30:24.833Z,19.2
2018-07-02T00:31:39.581Z,19.19
2018-07-02T00:32:54.260Z,19.18
2018-07-02T00:34:09.609Z,19.15
2018-07-02T00:35:24.575Z,19.12
2018-07-02T00:36:40.198Z,19.09
2018-07-02T00:37:55.382Z,19.08
2018-07-02T00:39:10.445Z,19.09
2018-07-02T00:40:25.860Z,19.09
2018-07-02T00:41:42.306Z,19.1
2018-07-02T00:42:57.171Z,19.1
2018-07-02T00:44:11.851Z,19.09
2018-07-02T00:45:26.000Z,19.07
2018-07-02T00:46:41.130Z,19.06
2018-07-02T00:47:55.621Z,19.08
2018-07-02T00:49:11.115Z,19.05
2018-07-02T00:50:26.456Z,19.04
2018-07-02T00:51:43.961Z,19.02
2018-07-02T00:53:00.390Z,18.98
2018-07-02T00:54:15.672Z,18.96
2018-07-02T00:55:30.171Z,18.95
2018-07-02T00:56:44.533Z,18.93
2018-07-02T00:57:59.142Z,18.94
2018-07-02T00:59:13.789Z,18.91
2018-07-02T01:00:29.266Z,18.91
2018-07-02T01:01:44.965Z,18.9
2018-07-02T01:03:00.841Z,18.89
2018-07-02T01:04:17.211Z,18.88
2018-07-02T01:05:32.070Z,18.87
2018-07-02T01:06:46.437Z,18.87
2018-07-02T01:08:01.755Z,18.87
2018-07-02T01:09:17.390Z,18.86
2018-07-02T01:10:32.200Z,18.85
2018-07-02T01:11:47.434Z,18.82
2018-07-02T01:13:04.215Z,18.78
2018-07-02T01:14:21.000Z,18.74
2018-07-02T01:15:35.441Z,18.72
2018-07-02T01:16:49.916Z,18.7
2018-07-02T01:18:04.557Z,18.68
2018-07-02T01:19:19.288Z,18.66
2018-07-02T01:20:34.754Z,18.64
2018-07-02T01:21:50.981Z,18.63
2018-07-02T01:23:08.797Z,18.61
2018-07-02T01:24:24.362Z,18.6
2018-07-02T01:25:39.015Z,18.6
2018-07-02T01:26:53.912Z,18.61
2018-07-02T01:28:09.231Z,18.6
2018-07-02T01:29:24.081Z,18.58
2018-07-02T01:30:38.775Z,18.57
2018-07-02T01:31:54.137Z,18.56
2018-07-02T01:33:08.710Z,18.55
2018-07-02T01:34:24.418Z,18.52
2018-07-02T01:35:39.240Z,18.51
2018-07-02T01:36:53.939Z,18.5
2018-07-02T01:38:08.470Z,18.5
2018-07-02T01:39:23.166Z,18.49
2018-07-02T01:40:44.140Z,18.46
2018-07-02T01:41:58.825Z,18.41
2018-07-02T01:43:14.204Z,18.38
2018-07-02T01:44:29.322Z,18.36
2018-07-02T01:45:44.586Z,18.35
2018-07-02T01:46:59.526Z,18.35
2018-07-02T01:48:14.531Z,18.34
2018-07-02T01:49:32.012Z,18.34
2018-07-02T01:50:46.367Z,18.35
2018-07-02T01:52:00.863Z,18.36
2018-07-02T01:53:15.145Z,18.4
2018-07-02T01:54:29.809Z,18.41
2018-07-02T01:55:44.422Z,18.4
2018-07-02T01:57:00.080Z,18.42
2018-07-02T01:58:16.707Z,18.4
2018-07-02T01:59:32.024Z,18.41
2018-07-02T02:00:49.808Z,18.44
2018-07-02T02:02:07.077Z,18.41
2018-07-02T02:03:23.592Z,18.41
2018-07-02T02:04:39.597Z,18.38
2018-07-02T02:05:55.160Z,18.37
2018-07-02T02:07:08.918Z,18.34
2018-07-02T02:08:24.272Z,18.32
2018-07-02T02:09:38.293Z,18.3
2018-07-02T02:10:53.448Z,18.28
2018-07-02T02:12:08.099Z,18.28
2018-07-02T02:13:22.460Z,18.25
2018-07-02T02:14:36.773Z,18.22
2018-07-02T02:15:51.197Z,18.2
2018-07-02T02:17:05.526Z,18.2
2018-07-02T02:18:20.827Z,18.19
2018-07-02T02:19:36.643Z,18.19
2018-07-02T02:20:52.015Z,18.18
2018-07-02T02:22:07.095Z,18.16
2018-07-02T02:23:22.401Z,18.15
2018-07-02T02:24:39.896Z,18.15
2018-07-02T02:25:56.507Z,18.14
2018-07-02T02:27:11.452Z,18.14
2018-07-02T02:28:26.893Z,18.15
2018-07-02T02:29:42.406Z,18.16
2018-07-02T02:30:57.650Z,18.15
2018-07-02T02:32:12.034Z,18.14
2018-07-02T02:33:26.625Z,18.11
2018-07-02T02:34:41.754Z,18.11
2018-07-02T02:35:56.935Z,18.1
2018-07-02T02:37:11.550Z,18.08
2018-07-02T02:38:25.522Z,18.07
2018-07-02T02:39:40.618Z,18.07
2018-07-02T02:40:54.813Z,18.06
2018-07-02T02:42:08.824Z,18.07
2018-07-02T02:43:23.567Z,18.04
2018-07-02T02:44:38.852Z,18.04
2018-07-02T02:45:53.779Z,18.03
2018-07-02T02:47:09.164Z,18.01
2018-07-02T02:48:24.559Z,17.94
2018-07-02T02:49:41.657Z,17.89
2018-07-02T02:50:57.384Z,17.83
2018-07-02T02:52:13.130Z,17.83
2018-07-02T02:53:27.866Z,17.8
2018-07-02T02:54:42.818Z,17.77
2018-07-02T02:55:57.597Z,17.78
2018-07-02T02:57:12.008Z,17.78
2018-07-02T02:58:26.199Z,17.78
2018-07-02T02:59:40.040Z,17.77
2018-07-02T03:00:55.008Z,17.76
2018-07-02T03:02:10.250Z,17.74
2018-07-02T03:03:25.486Z,17.72
2018-07-02T03:04:40.316Z,17.71
2018-07-02T03:05:54.796Z,17.7
2018-07-02T03:07:09.450Z,17.71
2018-07-02T03:08:23.765Z,17.71
2018-07-02T03:09:39.089Z,17.72
2018-07-02T03:10:54.261Z,17.72
2018-07-02T03:12:08.614Z,17.72
2018-07-02T03:13:24.909Z,17.71
2018-07-02T03:14:40.034Z,17.71
2018-07-02T03:15:56.063Z,17.72
2018-07-02T03:17:13.980Z,17.73
2018-07-02T03:18:30.110Z,17.73
2018-07-02T03:19:44.298Z,17.74
2018-07-02T03:20:58.468Z,17.73
2018-07-02T03:22:13.360Z,17.73
2018-07-02T03:23:28.015Z,17.73
2018-07-02T03:24:42.655Z,17.7
2018-07-02T03:25:56.853Z,17.69
2018-07-02T03:27:11.459Z,17.69
2018-07-02T03:28:26.523Z,17.69
2018-07-02T03:29:40.889Z,17.69
2018-07-02T03:30:55.524Z,17.69
2018-07-02T03:32:10.081Z,17.69
2018-07-02T03:33:24.989Z,17.69
2018-07-02T03:34:40.385Z,17.71
2018-07-02T03:35:56.951Z,17.73
2018-07-02T03:37:13.507Z,17.74
2018-07-02T03:38:30.015Z,17.79
2018-07-02T03:39:48.324Z,17.82
2018-07-02T03:41:03.297Z,17.83
2018-07-02T03:42:18.025Z,17.85
2018-07-02T03:43:32.506Z,17.83
2018-07-02T03:44:47.594Z,17.84
2018-07-02T03:46:02.723Z,17.88
2018-07-02T03:47:17.041Z,17.9
2018-07-02T03:48:31.227Z,17.94
2018-07-02T03:49:45.924Z,17.99
2018-07-02T03:51:00.676Z,18.03
2018-07-02T03:52:15.497Z,18.07
2018-07-02T03:53:30.817Z,18.15
2018-07-02T03:54:46.795Z,18.25
2018-07-02T03:56:03.072Z,18.36
2018-07-02T03:57:20.054Z,18.5
2018-07-02T03:58:37.054Z,18.79
2018-07-02T03:59:53.065Z,19.57
2018-07-02T04:01:09.111Z,20.81
2018-07-02T04:02:24.185Z,21.85
2018-07-02T04:03:39.140Z,22.77
2018-07-02T04:04:53.473Z,23.57
2018-07-02T04:06:07.888Z,24.31
2018-07-02T04:07:22.320Z,25.02
2018-07-02T04:08:36.874Z,25.68
2018-07-02T04:09:51.808Z,26.32
2018-07-02T04:11:05.986Z,26.9
2018-07-02T04:12:20.478Z,27.43
2018-07-02T04:13:34.794Z,27.92
2018-07-02T04:14:49.573Z,28.35
2018-07-02T04:16:06.296Z,28.83
2018-07-02T04:17:21.930Z,29.27
2018-07-02T04:18:37.437Z,29.61
2018-07-02T04:19:53.296Z,29.97
2018-07-02T04:21:07.567Z,30.25
2018-07-02T04:22:23.899Z,30.57
2018-07-02T04:23:38.469Z,30.99
2018-07-02T04:24:55.937Z,31.47
2018-07-02T04:26:11.463Z,31.91
2018-07-02T04:27:26.328Z,32.34
2018-07-02T04:28:40.817Z,32.81
2018-07-02T04:29:55.395Z,33.29
2018-07-02T04:31:10.150Z,33.67
2018-07-02T04:32:26.521Z,34.08
2018-07-02T04:33:43.648Z,34.5
2018-07-02T04:34:59.704Z,34.89
2018-07-02T04:36:15.243Z,35.28
2018-07-02T04:37:31.311Z,35.71
2018-07-02T04:38:46.315Z,36.12
2018-07-02T04:40:00.693Z,36.52
2018-07-02T04:41:17.636Z,36.9
2018-07-02T04:42:35.467Z,37.29
2018-07-02T04:43:52.974Z,37.61
2018-07-02T04:45:10.165Z,37.79
2018-07-02T04:46:26.981Z,37.97
2018-07-02T04:47:41.296Z,38.21
2018-07-02T04:49:00.011Z,38.51
2018-07-02T04:50:15.303Z,38.83
2018-07-02T04:51:31.566Z,39.15
2018-07-02T04:52:49.382Z,39.49
2018-07-02T04:54:06.294Z,39.78
2018-07-02T04:55:25.652Z,40.15
2018-07-02T04:56:42.413Z,40.53
2018-07-02T04:58:00.003Z,40.82
2018-07-02T04:59:14.592Z,40.95
2018-07-02T05:00:31.157Z,40.96
2018-07-02T05:01:46.209Z,40.89
2018-07-02T05:03:00.882Z,40.96
2018-07-02T05:04:16.136Z,40.87
2018-07-02T05:05:31.337Z,40.87
2018-07-02T05:06:46.118Z,41.04
2018-07-02T05:08:01.059Z,41.22
2018-07-02T05:09:15.832Z,41.45
2018-07-02T05:10:30.180Z,41.65
2018-07-02T05:11:44.193Z,41.86
2018-07-02T05:12:58.776Z,42.06
2018-07-02T05:14:26.405Z,42.09
2018-07-02T05:15:41.439Z,42.04
2018-07-02T05:16:56.180Z,41.95
2018-07-02T05:18:10.715Z,42.06
2018-07-02T05:19:24.972Z,42.23
2018-07-02T05:20:39.450Z,42.51
2018-07-02T05:21:53.523Z,42.78
2018-07-02T05:23:07.852Z,42.99
2018-07-02T05:24:22.791Z,43.18
2018-07-02T05:25:37.627Z,43.14
2018-07-02T05:26:51.893Z,43.2
2018-07-02T05:28:06.696Z,43.41
2018-07-02T05:29:20.392Z,43.54
2018-07-02T05:30:34.652Z,43.56
2018-07-02T05:31:48.594Z,43.59
2018-07-02T05:33:03.501Z,43.71
2018-07-02T05:34:17.919Z,43.88
2018-07-02T05:35:32.692Z,44.04
2018-07-02T05:36:46.864Z,44.14
2018-07-02T05:38:01.514Z,44.1
2018-07-02T05:39:15.945Z,43.9
2018-07-02T05:40:30.759Z,43.7
2018-07-02T05:41:44.684Z,43.48
2018-07-02T05:42:59.258Z,42.13
2018-07-02T05:44:13.999Z,39.16
2018-07-02T05:45:28.000Z,36.42
2018-07-02T05:46:42.245Z,34.43
2018-07-02T05:47:57.089Z,32.79
2018-07-02T05:49:11.736Z,31.34
2018-07-02T05:50:26.409Z,30.18
2018-07-02T05:51:40.907Z,29.2
2018-07-02T05:52:55.438Z,28.29
2018-07-02T05:54:09.905Z,27.42
2018-07-02T05:55:24.214Z,26.8
2018-07-02T05:56:39.078Z,26.36
2018-07-02T05:57:54.154Z,26
2018-07-02T05:59:08.607Z,25.42
2018-07-02T06:00:23.824Z,24.97
2018-07-02T06:01:39.690Z,24.67
2018-07-02T06:02:54.352Z,24.45
2018-07-02T06:04:08.406Z,24.29
2018-07-02T06:05:23.636Z,24.11
2018-07-02T06:06:38.792Z,23.75
2018-07-02T06:07:53.784Z,23.57
2018-07-02T06:09:08.024Z,23.47
2018-07-02T06:10:22.970Z,23.37
2018-07-02T06:11:37.579Z,23.31
2018-07-02T06:12:52.904Z,23.22
2018-07-02T06:14:07.157Z,23.14
2018-07-02T06:15:21.693Z,23.08
2018-07-02T06:16:36.202Z,22.97
2018-07-02T06:17:51.452Z,22.85
2018-07-02T06:19:06.328Z,22.8
2018-07-02T06:20:20.646Z,22.8
2018-07-02T06:21:35.623Z,22.77
2018-07-02T06:22:50.161Z,22.73
2018-07-02T06:24:05.199Z,22.63
2018-07-02T06:25:19.684Z,22.52
2018-07-02T06:26:33.851Z,22.4
2018-07-02T06:27:47.925Z,22.32
2018-07-02T06:29:02.121Z,22.25
2018-07-02T06:30:16.902Z,22.25
2018-07-02T06:31:32.367Z,22.31
2018-07-02T06:32:46.873Z,22.4
2018-07-02T06:34:01.448Z,22.44
2018-07-02T06:35:16.887Z,22.52
2018-07-02T06:36:31.738Z,22.58
2018-07-02T06:37:46.698Z,22.57
2018-07-02T06:39:02.053Z,22.54
2018-07-02T06:40:16.372Z,22.48
2018-07-02T06:41:30.852Z,22.45
2018-07-02T06:42:46.962Z,22.45
2018-07-02T06:44:01.992Z,22.42
2018-07-02T06:45:17.235Z,22.42
2018-07-02T06:46:32.007Z,22.45
2018-07-02T06:47:46.855Z,22.5
2018-07-02T06:49:02.157Z,22.55
2018-07-02T06:50:17.611Z,22.58
2018-07-02T06:51:33.121Z,22.6
2018-07-02T06:52:48.411Z,22.64
2018-07-02T06:54:02.913Z,22.62
2018-07-02T06:55:19.008Z,22.53
2018-07-02T06:56:34.664Z,22.42
2018-07-02T06:57:49.846Z,22.41
2018-07-02T06:59:05.111Z,22.43
2018-07-02T07:00:21.323Z,22.49
2018-07-02T07:01:36.217Z,22.55
2018-07-02T07:02:50.628Z,22.6
2018-07-02T07:04:05.767Z,22.62
2018-07-02T07:05:20.172Z,22.6
2018-07-02T07:06:35.732Z,22.6
2018-07-02T07:07:52.621Z,22.63
2018-07-02T07:09:08.306Z,22.68
2018-07-02T07:10:24.012Z,22.73
2018-07-02T07:11:42.783Z,22.8
2018-07-02T07:12:58.719Z,22.86
2018-07-02T07:14:13.259Z,22.9
2018-07-02T07:15:27.957Z,22.94
2018-07-02T07:16:43.791Z,22.95
2018-07-02T07:17:59.098Z,22.93
2018-07-02T07:19:14.534Z,22.95
2018-07-02T07:20:29.965Z,22.98
2018-07-02T07:21:45.160Z,22.98
2018-07-02T07:23:00.591Z,22.99
2018-07-02T07:24:17.364Z,23.01
2018-07-02T07:25:31.971Z,23.05
2018-07-02T07:26:47.472Z,23.07
2018-07-02T07:28:02.561Z,23.09
2018-07-02T07:29:17.489Z,23.11
2018-07-02T07:30:32.891Z,23.16
2018-07-02T07:31:47.745Z,23.19
2018-07-02T07:33:03.998Z,23.24
2018-07-02T07:34:20.214Z,23.27
2018-07-02T07:35:35.724Z,23.31
2018-07-02T07:36:51.646Z,23.34
2018-07-02T07:38:07.778Z,23.36
2018-07-02T07:39:23.300Z,23.35
2018-07-02T07:40:38.624Z,23.36
2018-07-02T07:41:53.711Z,23.36
2018-07-02T07:43:09.257Z,23.32
2018-07-02T07:44:24.903Z,23.31
2018-07-02T07:45:40.773Z,23.33
2018-07-02T07:46:56.322Z,23.37
2018-07-02T07:48:11.840Z,23.39
2018-07-02T07:49:26.925Z,23.41
2018-07-02T07:50:42.232Z,23.44
2018-07-02T07:51:57.637Z,23.46
2018-07-02T07:53:12.144Z,23.48
2018-07-02T07:54:27.467Z,23.51
2018-07-02T07:55:43.031Z,23.53
2018-07-02T07:56:57.636Z,23.53
2018-07-02T07:58:13.838Z,23.58
2018-07-02T07:59:30.155Z,23.64
2018-07-02T08:00:45.333Z,23.69
2018-07-02T08:02:00.112Z,23.71
2018-07-02T08:03:15.709Z,23.73
2018-07-02T08:04:30.870Z,23.75
2018-07-02T08:05:48.542Z,23.78
2018-07-02T08:07:03.407Z,23.82
2018-07-02T08:08:18.363Z,23.85
2018-07-02T08:09:33.658Z,23.89
2018-07-02T08:10:48.461Z,23.93
2018-07-02T08:12:04.120Z,23.96
2018-07-02T08:13:18.410Z,24
2018-07-02T08:14:33.492Z,24.05
2018-07-02T08:15:48.852Z,24.11
2018-07-02T08:17:04.119Z,24.19
2018-07-02T08:18:18.640Z,24.23
2018-07-02T08:19:33.159Z,24.29
2018-07-02T08:20:48.023Z,24.34
2018-07-02T08:22:02.810Z,24.34
2018-07-02T08:23:17.461Z,24.34
2018-07-02T08:24:31.749Z,24.36
2018-07-02T08:25:46.472Z,24.35
2018-07-02T08:27:01.594Z,24.36
2018-07-02T08:28:17.174Z,24.35
2018-07-02T08:29:31.816Z,24.34
2018-07-02T08:30:46.181Z,24.36
2018-07-02T08:32:02.220Z,24.38
2018-07-02T08:33:17.109Z,24.4
2018-07-02T08:34:32.569Z,24.44
2018-07-02T08:35:48.123Z,24.45
2018-07-02T08:37:02.591Z,24.46
2018-07-02T08:38:16.978Z,24.43
2018-07-02T08:39:31.562Z,24.38
2018-07-02T08:40:46.695Z,24.31
2018-07-02T08:42:00.996Z,24.21
2018-07-02T08:43:15.827Z,24.15
2018-07-02T08:44:30.498Z,24.09
2018-07-02T08:45:45.066Z,24.09
2018-07-02T08:47:00.058Z,24.09
2018-07-02T08:48:15.286Z,24.11
2018-07-02T08:49:31.097Z,24.14
2018-07-02T08:50:47.129Z,24.17
2018-07-02T08:52:02.631Z,24.2
2018-07-02T08:53:17.915Z,24.24
2018-07-02T08:54:32.302Z,24.25
2018-07-02T08:55:47.666Z,24.29
2018-07-02T08:57:02.210Z,24.31
2018-07-02T08:58:18.188Z,24.33
2018-07-02T08:59:34.121Z,24.4
2018-07-02T09:00:50.843Z,24.45
2018-07-02T09:02:08.107Z,24.51
2018-07-02T09:03:23.084Z,24.59
2018-07-02T09:04:38.032Z,24.63
2018-07-02T09:05:53.866Z,24.65
2018-07-02T09:07:09.512Z,24.68
2018-07-02T09:08:24.242Z,24.68
2018-07-02T09:09:40.204Z,24.65
2018-07-02T09:10:55.539Z,24.67
2018-07-02T09:12:11.941Z,24.7
2018-07-02T09:13:27.350Z,24.75
2018-07-02T09:14:42.022Z,24.79
2018-07-02T09:15:57.297Z,24.81
2018-07-02T09:17:13.168Z,24.85
2018-07-02T09:18:28.854Z,24.89
2018-07-02T09:19:43.381Z,24.95
2018-07-02T09:20:59.119Z,25
2018-07-02T09:22:14.106Z,25.07
2018-07-02T09:23:28.789Z,25.08
2018-07-02T09:24:43.565Z,24.98
2018-07-02T09:25:58.279Z,24.89
2018-07-02T09:27:13.277Z,24.83
2018-07-02T09:28:28.569Z,24.77
2018-07-02T09:29:44.782Z,24.74
2018-07-02T09:31:00.473Z,24.75
2018-07-02T09:32:15.292Z,24.77
2018-07-02T09:33:30.299Z,24.8
2018-07-02T09:34:44.148Z,24.83
2018-07-02T09:35:59.230Z,24.88
2018-07-02T09:37:15.444Z,24.93
2018-07-02T09:38:30.921Z,25
2018-07-02T09:39:46.189Z,25.04
2018-07-02T09:41:00.857Z,25.08
2018-07-02T09:42:15.466Z,25.1
2018-07-02T09:43:30.558Z,25.1
2018-07-02T09:44:45.896Z,25.11
2018-07-02T09:46:00.520Z,25.15
2018-07-02T09:47:15.507Z,25.16
2018-07-02T09:48:31.139Z,25.17
2018-07-02T09:49:47.080Z,25.2
2018-07-02T09:51:01.846Z,25.21
2018-07-02T09:52:15.819Z,25.24
2018-07-02T09:53:30.447Z,25.26
2018-07-02T09:54:45.105Z,25.29
2018-07-02T09:56:03.141Z,25.3
2018-07-02T09:57:19.037Z,25.27
2018-07-02T09:58:33.506Z,25.28
2018-07-02T09:59:48.375Z,25.27
2018-07-02T10:01:04.414Z,25.28
2018-07-02T10:02:21.974Z,25.27
2018-07-02T10:03:38.029Z,25.25
2018-07-02T10:04:52.858Z,25.2
2018-07-02T10:06:08.307Z,25.16
2018-07-02T10:07:23.666Z,25.14
2018-07-02T10:08:39.016Z,25.11
2018-07-02T10:09:53.989Z,25.06
2018-07-02T10:11:09.014Z,25.01
2018-07-02T10:12:23.587Z,24.99
2018-07-02T10:13:39.045Z,25
2018-07-02T10:14:53.735Z,25.02
2018-07-02T10:16:09.714Z,25.02
2018-07-02T10:17:24.470Z,25.03
2018-07-02T10:18:39.322Z,25.04
2018-07-02T10:19:54.251Z,25.06
2018-07-02T10:21:09.509Z,25.09
2018-07-02T10:22:26.507Z,25.1
2018-07-02T10:23:41.789Z,25.14
2018-07-02T10:24:56.174Z,25.15
2018-07-02T10:26:11.105Z,25.12
2018-07-02T10:27:26.339Z,25.13
2018-07-02T10:28:40.846Z,25.16
2018-07-02T10:29:57.760Z,25.2
2018-07-02T10:31:15.543Z,25.25
2018-07-02T10:32:32.164Z,25.29
2018-07-02T10:33:48.598Z,25.35
2018-07-02T10:35:02.533Z,25.4
2018-07-02T10:36:18.466Z,25.45
2018-07-02T10:37:32.830Z,25.48
2018-07-02T10:38:47.420Z,25.51
2018-07-02T10:40:03.784Z,25.54
2018-07-02T10:41:18.796Z,25.48
2018-07-02T10:42:34.750Z,25.44
2018-07-02T10:43:50.552Z,25.42
2018-07-02T10:45:05.189Z,25.45
2018-07-02T10:46:23.100Z,25.51
2018-07-02T10:47:37.957Z,25.58
2018-07-02T10:48:53.098Z,25.66
2018-07-02T10:50:08.532Z,25.67
2018-07-02T10:51:24.665Z,25.7
2018-07-02T10:52:39.606Z,25.7
2018-07-02T10:53:53.789Z,25.7
2018-07-02T10:55:09.522Z,25.7
2018-07-02T10:56:26.553Z,25.72
2018-07-02T10:57:40.773Z,25.74
2018-07-02T10:58:57.237Z,25.75
2018-07-02T11:00:12.939Z,25.75
2018-07-02T11:01:28.012Z,25.69
2018-07-02T11:02:44.938Z,25.65
2018-07-02T11:04:01.973Z,25.56
2018-07-02T11:05:20.185Z,25.53
2018-07-02T11:06:35.477Z,25.58
2018-07-02T11:07:52.367Z,25.62
2018-07-02T11:09:09.649Z,25.68
2018-07-02T11:10:24.625Z,25.72
2018-07-02T11:11:39.805Z,25.77
2018-07-02T11:12:55.710Z,25.82
2018-07-02T11:14:11.087Z,25.88
2018-07-02T11:15:28.141Z,25.95
2018-07-02T11:16:44.211Z,26.02
2018-07-02T11:18:00.735Z,26.07
2018-07-02T11:19:18.377Z,26.12
2018-07-02T11:20:33.262Z,26.14
2018-07-02T11:21:48.031Z,26.18
2018-07-02T11:23:02.367Z,26.15
2018-07-02T11:24:21.242Z,26.13
2018-07-02T11:25:40.089Z,26.07
2018-07-02T11:26:59.870Z,26
2018-07-02T11:28:17.986Z,25.97
2018-07-02T11:29:35.373Z,25.92
2018-07-02T11:30:52.995Z,25.85
2018-07-02T11:32:10.328Z,25.84
2018-07-02T11:33:47.200Z,25.81
2018-07-02T11:35:09.476Z,25.79
2018-07-02T11:36:27.509Z,25.79
2018-07-02T11:37:47.222Z,25.82
2018-07-02T11:39:04.596Z,25.86
2018-07-02T11:40:20.117Z,25.89
2018-07-02T11:41:37.955Z,25.93
2018-07-02T11:42:55.259Z,25.96
2018-07-02T11:44:11.455Z,26.01
2018-07-02T11:45:27.086Z,26.06
2018-07-02T11:46:42.758Z,26.12
2018-07-02T11:47:58.670Z,26.14
2018-07-02T11:49:13.766Z,26.2
2018-07-02T11:50:28.815Z,26.25
2018-07-02T11:51:44.360Z,26.31
2018-07-02T11:53:01.268Z,26.35
2018-07-02T11:54:17.427Z,26.34
2018-07-02T11:55:33.039Z,26.38
2018-07-02T11:56:50.514Z,26.41
2018-07-02T11:58:06.029Z,26.38
2018-07-02T11:59:21.747Z,26.36
2018-07-02T12:00:37.613Z,26.37
2018-07-02T12:01:53.398Z,26.39
2018-07-02T12:03:09.396Z,26.4
2018-07-02T12:04:28.068Z,26.42
2018-07-02T12:05:43.962Z,26.49
2018-07-02T12:07:02.313Z,26.54
2018-07-02T12:08:18.592Z,26.59
2018-07-02T12:09:34.572Z,26.62
2018-07-02T12:10:51.706Z,26.66
2018-07-02T12:12:09.455Z,26.65
2018-07-02T12:13:28.070Z,26.58
2018-07-02T12:14:46.887Z,26.57
2018-07-02T12:16:03.533Z,26.59
2018-07-02T12:17:21.130Z,26.61
2018-07-02T12:18:36.261Z,26.63
2018-07-02T12:19:52.169Z,26.63
2018-07-02T12:21:09.184Z,26.6
2018-07-02T12:22:24.808Z,26.57
2018-07-02T12:23:41.341Z,26.56
2018-07-02T12:25:01.166Z,26.55
2018-07-02T12:26:18.683Z,26.48
2018-07-02T12:27:36.985Z,26.45
2018-07-02T12:28:55.657Z,26.42
2018-07-02T12:30:13.802Z,26.42
2018-07-02T12:31:29.949Z,26.42
2018-07-02T12:32:49.296Z,26.44
2018-07-02T12:34:09.667Z,26.48
2018-07-02T12:35:29.443Z,26.51
2018-07-02T12:36:46.121Z,26.51
2018-07-02T12:38:04.732Z,26.56
2018-07-02T12:39:23.925Z,26.61
2018-07-02T12:40:56.453Z,26.64
2018-07-02T12:42:15.003Z,26.7
2018-07-02T12:43:32.134Z,26.75
2018-07-02T12:44:52.361Z,26.82
2018-07-02T12:46:09.525Z,26.86
2018-07-02T12:47:32.284Z,26.88
2018-07-02T12:48:50.160Z,26.9
2018-07-02T12:50:07.528Z,26.95
2018-07-02T12:51:27.641Z,26.98
2018-07-02T12:52:44.282Z,27
2018-07-02T12:54:01.217Z,27.02
2018-07-02T12:55:16.677Z,27.03
2018-07-02T12:56:34.463Z,27.03
2018-07-02T12:57:50.612Z,27.02
2018-07-02T12:59:06.138Z,27
2018-07-02T13:00:24.725Z,27
2018-07-02T13:01:41.238Z,27.03
2018-07-02T13:02:59.083Z,27.05
2018-07-02T13:04:14.936Z,27.09
2018-07-02T13:05:33.934Z,27.12
2018-07-02T13:06:53.275Z,27.15
2018-07-02T13:08:11.061Z,27.21
2018-07-02T13:09:28.070Z,27.16
2018-07-02T13:10:43.160Z,27.13
2018-07-02T13:11:58.055Z,27.1
2018-07-02T13:13:14.791Z,27.11
2018-07-02T13:14:30.708Z,27.13
2018-07-02T13:15:46.331Z,27.19
2018-07-02T13:17:01.010Z,27.21
2018-07-02T13:18:18.354Z,27.26
2018-07-02T13:19:33.603Z,27.31
2018-07-02T13:20:52.053Z,27.37
2018-07-02T13:22:07.911Z,27.43
2018-07-02T13:23:23.244Z,27.5
2018-07-02T13:24:38.168Z,27.53
2018-07-02T13:25:54.212Z,27.55
2018-07-02T13:27:10.143Z,27.51
2018-07-02T13:28:25.804Z,27.5
2018-07-02T13:29:40.164Z,27.51
2018-07-02T13:30:56.653Z,27.52
2018-07-02T13:32:11.925Z,27.52
2018-07-02T13:33:29.510Z,27.52
2018-07-02T13:34:44.728Z,27.56
2018-07-02T13:35:59.705Z,27.59
2018-07-02T13:37:15.017Z,27.6
2018-07-02T13:38:29.571Z,27.64
2018-07-02T13:39:45.202Z,27.64
2018-07-02T13:41:00.075Z,27.65
2018-07-02T13:42:15.120Z,27.64
2018-07-02T13:43:30.221Z,27.62
2018-07-02T13:44:47.210Z,27.61
2018-07-02T13:46:07.481Z,27.62
2018-07-02T13:47:26.167Z,27.62
2018-07-02T13:48:47.154Z,27.61
2018-07-02T13:50:06.111Z,27.57
2018-07-02T13:51:25.811Z,27.54
2018-07-02T13:52:44.721Z,27.53
2018-07-02T13:54:02.004Z,27.53
2018-07-02T13:55:17.563Z,27.53
2018-07-02T13:56:33.527Z,27.56
2018-07-02T13:57:51.209Z,27.59
2018-07-02T13:59:07.947Z,27.63
2018-07-02T14:00:25.362Z,27.67
2018-07-02T14:01:40.848Z,27.69
2018-07-02T14:02:56.816Z,27.69
2018-07-02T14:04:14.336Z,27.72
2018-07-02T14:05:30.905Z,27.72
2018-07-02T14:06:47.732Z,27.74
2018-07-02T14:08:05.947Z,27.75
2018-07-02T14:09:22.225Z,27.78
2018-07-02T14:10:39.110Z,27.77
2018-07-02T14:11:56.915Z,27.69
2018-07-02T14:13:12.344Z,27.68
2018-07-02T14:14:28.320Z,27.66
2018-07-02T14:15:45.157Z,27.68
2018-07-02T14:17:01.357Z,27.67
2018-07-02T14:18:17.686Z,27.68
2018-07-02T14:19:34.488Z,27.71
2018-07-02T14:20:49.527Z,27.72
2018-07-02T14:22:05.493Z,27.72
2018-07-02T14:23:23.496Z,27.75
2018-07-02T14:24:42.397Z,27.79
2018-07-02T14:25:57.388Z,27.8
2018-07-02T14:27:13.895Z,27.79
2018-07-02T14:28:30.139Z,27.76
2018-07-02T14:29:46.582Z,27.73
2018-07-02T14:31:04.150Z,27.71
2018-07-02T14:32:18.469Z,27.72
2018-07-02T14:33:33.735Z,27.74
2018-07-02T14:34:48.069Z,27.77
2018-07-02T14:36:05.213Z,27.74
2018-07-02T14:37:21.366Z,27.73
2018-07-02T14:38:36.015Z,27.73
2018-07-02T14:39:51.828Z,27.77
2018-07-02T14:41:07.536Z,27.78
2018-07-02T14:42:22.408Z,27.79
2018-07-02T14:43:38.639Z,27.76
2018-07-02T14:44:54.512Z,27.71
2018-07-02T14:46:10.588Z,27.73
2018-07-02T14:47:26.679Z,27.73
2018-07-02T14:48:44.081Z,27.78
2018-07-02T14:49:59.508Z,27.82
2018-07-02T14:51:16.268Z,27.88
2018-07-02T14:52:31.795Z,27.94
2018-07-02T14:53:49.596Z,27.99
2018-07-02T14:55:07.553Z,27.97
2018-07-02T14:56:21.804Z,27.95
2018-07-02T14:57:37.025Z,27.95
2018-07-02T14:58:53.623Z,27.95
2018-07-02T15:00:08.096Z,27.95
2018-07-02T15:01:23.092Z,27.93
2018-07-02T15:02:39.995Z,27.94
2018-07-02T15:03:54.747Z,27.98
2018-07-02T15:05:10.460Z,27.99
2018-07-02T15:06:25.316Z,28
2018-07-02T15:07:40.719Z,28.01
2018-07-02T15:08:55.912Z,28.01
2018-07-02T15:10:10.661Z,28.01
2018-07-02T15:11:27.215Z,28.04
2018-07-02T15:12:44.144Z,28.05
2018-07-02T15:14:00.955Z,28.08
2018-07-02T15:15:19.012Z,28.12
2018-07-02T15:16:34.516Z,28.15
2018-07-02T15:17:51.737Z,28.17
2018-07-02T15:19:10.071Z,28.18
2018-07-02T15:20:26.676Z,28.19
2018-07-02T15:21:44.769Z,28.21
2018-07-02T15:23:03.309Z,28.22
2018-07-02T15:24:18.812Z,28.25
2018-07-02T15:25:33.189Z,28.29
2018-07-02T15:26:48.427Z,28.34
2018-07-02T15:28:03.287Z,28.38
2018-07-02T15:29:20.740Z,28.44
2018-07-02T15:30:34.831Z,28.45
2018-07-02T15:31:49.892Z,28.49
2018-07-02T15:33:06.519Z,28.52
2018-07-02T15:34:21.065Z,28.56
2018-07-02T15:35:36.665Z,28.58
2018-07-02T15:36:50.774Z,28.62
2018-07-02T15:38:06.385Z,28.63
2018-07-02T15:39:20.566Z,28.64
2018-07-02T15:40:36.321Z,28.64
2018-07-02T15:41:50.566Z,28.62
2018-07-02T15:43:05.813Z,28.63
2018-07-02T15:44:20.597Z,28.63
2018-07-02T15:45:35.929Z,28.65
2018-07-02T15:46:53.025Z,28.69
2018-07-02T15:48:09.604Z,28.71
2018-07-02T15:49:26.322Z,28.69
2018-07-02T15:51:12.698Z,28.61
2018-07-02T15:52:27.756Z,28.53
2018-07-02T15:53:43.453Z,28.52
2018-07-02T15:54:58.487Z,28.52
2018-07-02T15:56:15.900Z,28.53
2018-07-02T15:58:09.769Z,28.56
2018-07-02T15:59:24.479Z,28.54
2018-07-02T16:00:39.766Z,28.51
2018-07-02T16:01:56.947Z,28.49
2018-07-02T16:03:18.687Z,28.51
2018-07-02T16:04:38.511Z,28.53
2018-07-02T16:05:57.679Z,28.51
2018-07-02T16:07:53.225Z,28.51
2018-07-02T16:09:50.626Z,28.5
2018-07-02T16:11:13.580Z,28.52
2018-07-02T16:12:33.528Z,28.51
2018-07-02T16:13:54.257Z,28.51
2018-07-02T16:15:12.728Z,28.52
2018-07-02T16:16:33.701Z,28.51
2018-07-02T16:17:54.934Z,28.5
2018-07-02T16:19:14.926Z,28.51
2018-07-02T16:20:36.653Z,28.54
2018-07-02T16:22:23.723Z,28.55